createdAt,value
2019-02-17T00:00:34.992Z,13.67
2019-02-17T00:05:41.345Z,10.17
2019-02-17T00:10:43.641Z,17.97
2019-02-17T00:15:47.631Z,10.70
2019-02-17T00:20:50.061Z,13.93
2019-02-17T00:25:52.258Z,13.53
2019-02-17T00:30:56.990Z,12.73
2019-02-17T00:35:59.527Z,11.77
2019-02-17T00:41:07.044Z,15.73
2019-02-17T00:46:12.211Z,15.53
2019-02-17T00:51:14.946Z,14.33
2019-02-17T00:56:17.205Z,12.87
2019-02-17T01:01:19.535Z,13.77
2019-02-17T01:06:21.876Z,14.40
2019-02-17T01:11:26.566Z,14.10
2019-02-17T01:16:29.398Z,17.73
2019-02-17T01:21:31.596Z,13.70
2019-02-17T01:26:34.061Z,14.03
2019-02-17T01:31:36.311Z,12.53
2019-02-17T01:36:40.735Z,15.47
2019-02-17T01:41:42.922Z,14.23
2019-02-17T01:46:46.997Z,16.77
2019-02-17T01:51:50.864Z,21.57
2019-02-17T01:56:53.272Z,13.53
2019-02-17T02:01:55.565Z,16.27
2019-02-17T02:06:57.924Z,16.83
2019-02-17T02:12:03.065Z,14.50
2019-02-17T02:17:05.278Z,12.90
2019-02-17T02:22:11.952Z,14.43
2019-02-17T02:27:14.176Z,13.70
2019-02-17T02:32:18.194Z,11.80
2019-02-17T02:37:20.537Z,16.60
2019-02-17T02:42:22.911Z,13.33
2019-02-17T02:47:27.372Z,11.00
2019-02-17T02:52:29.600Z,14.50
2019-02-17T02:57:31.864Z,14.33
2019-02-17T03:02:34.161Z,13.03
2019-02-17T03:07:36.461Z,12.60
2019-02-17T03:12:38.755Z,13.23
2019-02-17T03:17:40.946Z,14.07
2019-02-17T03:22:43.128Z,14.57
2019-02-17T03:27:49.576Z,13.67
2019-02-17T03:32:53.640Z,11.27
2019-02-17T03:37:55.986Z,12.60
2019-02-17T03:42:59.064Z,13.90
2019-02-17T03:48:03.338Z,14.20
2019-02-17T03:53:07.413Z,11.47
2019-02-17T03:58:09.993Z,15.87
2019-02-17T04:03:14.005Z,13.63
2019-02-17T04:08:16.125Z,11.90
2019-02-17T04:13:18.390Z,14.67
2019-02-17T04:18:20.613Z,10.87
2019-02-17T04:23:31.401Z,13.57
2019-02-17T04:28:29.771Z,14.67
2019-02-17T04:33:32.031Z,13.30
2019-02-17T04:38:34.252Z,15.23
2019-02-17T04:43:36.413Z,15.20
2019-02-17T04:48:38.612Z,15.23
2019-02-17T04:53:41.981Z,18.40
2019-02-17T04:58:45.366Z,13.67
2019-02-17T05:03:48.123Z,15.97
2019-02-17T05:08:50.327Z,19.67
2019-02-17T05:13:54.527Z,15.93
2019-02-17T05:18:56.831Z,15.83
2019-02-17T05:23:59.052Z,16.10
2019-02-17T05:29:02.502Z,15.83
2019-02-17T05:34:04.923Z,16.20
2019-02-17T05:39:07.281Z,19.50
2019-02-17T05:44:09.494Z,16.83
2019-02-17T05:49:11.752Z,17.17
2019-02-17T05:54:14.062Z,18.40
2019-02-17T05:59:16.291Z,17.60
2019-02-17T06:04:20.777Z,15.97
2019-02-17T06:09:23.260Z,19.00
2019-02-17T06:14:25.455Z,17.30
2019-02-17T06:19:30.679Z,16.73
2019-02-17T06:24:32.904Z,15.67
2019-02-17T06:29:38.996Z,17.90
2019-02-17T06:34:41.205Z,20.73
2019-02-17T06:39:48.127Z,15.17
2019-02-17T06:44:50.504Z,16.80
2019-02-17T06:49:53.934Z,21.90
2019-02-17T06:55:07.078Z,20.23
2019-02-17T07:00:27.297Z,17.73
2019-02-17T07:05:49.364Z,21.70
2019-02-17T07:10:51.496Z,18.13
2019-02-17T07:15:53.768Z,19.33
2019-02-17T07:20:56.018Z,23.07
2019-02-17T07:26:08.074Z,20.03
2019-02-17T07:31:10.327Z,20.70
2019-02-17T07:36:14.387Z,19.07
2019-02-17T07:41:16.567Z,23.00
2019-02-17T07:46:21.974Z,24.93
2019-02-17T07:51:24.240Z,19.87
2019-02-17T07:56:26.509Z,19.97
2019-02-17T08:01:30.345Z,21.60
2019-02-17T08:06:32.657Z,20.67
2019-02-17T08:11:36.736Z,18.80
2019-02-17T08:16:39.099Z,18.63
2019-02-17T08:21:41.295Z,20.90
2019-02-17T08:26:43.502Z,22.77
2019-02-17T08:31:55.176Z,21.60
2019-02-17T08:36:51.756Z,20.60
2019-02-17T08:41:54.027Z,21.20
2019-02-17T08:46:56.173Z,20.63
2019-02-17T08:51:58.334Z,20.00
2019-02-17T08:57:01.605Z,22.07
2019-02-17T09:02:06.253Z,21.70
2019-02-17T09:07:07.958Z,24.53
2019-02-17T09:12:12.432Z,21.57
2019-02-17T09:17:18.953Z,24.63
2019-02-17T09:22:24.698Z,22.47
2019-02-17T09:27:30.751Z,24.60
2019-02-17T09:32:33.043Z,26.23
2019-02-17T09:37:35.341Z,23.50
2019-02-17T09:42:38.061Z,22.77
2019-02-17T09:47:45.393Z,20.50
2019-02-17T09:52:48.664Z,23.37
2019-02-17T09:57:54.258Z,25.57
2019-02-17T10:02:56.464Z,26.40
2019-02-17T10:07:58.785Z,22.03
2019-02-17T10:13:01.414Z,24.20
2019-02-17T10:18:03.842Z,23.53
2019-02-17T10:23:06.035Z,23.73
2019-02-17T10:28:08.536Z,23.13
2019-02-17T10:33:10.733Z,23.80
2019-02-17T10:38:14.788Z,25.73
2019-02-17T10:43:21.373Z,26.23
2019-02-17T10:48:27.508Z,25.03
2019-02-17T10:53:29.725Z,23.60
2019-02-17T10:58:31.929Z,27.27
2019-02-17T11:03:34.155Z,25.97
2019-02-17T11:08:36.371Z,24.43
2019-02-17T11:13:38.489Z,27.93
2019-02-17T11:18:40.665Z,25.23
2019-02-17T11:23:42.797Z,25.53
2019-02-17T11:28:46.278Z,27.30
2019-02-17T11:33:48.505Z,22.87
2019-02-17T11:38:50.743Z,23.40
2019-02-17T11:43:53.110Z,23.70
2019-02-17T11:48:55.275Z,25.00
2019-02-17T11:53:59.324Z,30.93
2019-02-17T11:59:01.514Z,23.73
2019-02-17T12:04:03.791Z,24.87
2019-02-17T12:09:13.086Z,22.53
2019-02-17T12:14:15.321Z,24.20
2019-02-17T12:19:17.611Z,28.00
2019-02-17T12:24:34.674Z,24.30
2019-02-17T12:29:51.160Z,28.60
2019-02-17T12:34:53.684Z,26.13
2019-02-17T12:39:55.899Z,25.80
2019-02-17T12:44:58.028Z,25.30
2019-02-17T12:50:00.260Z,24.93
2019-02-17T12:55:02.598Z,25.00
2019-02-17T13:00:11.334Z,25.40
2019-02-17T13:05:14.688Z,23.17
2019-02-17T13:10:17.036Z,26.17
2019-02-17T13:15:19.304Z,30.53
2019-02-17T13:20:25.357Z,26.30
2019-02-17T13:25:27.599Z,26.53
2019-02-17T13:30:29.879Z,26.00
2019-02-17T13:35:32.077Z,25.80
2019-02-17T13:40:34.311Z,27.70
2019-02-17T13:45:36.511Z,24.13
2019-02-17T13:50:38.728Z,26.00
2019-02-17T13:55:43.289Z,22.07
2019-02-17T14:00:46.591Z,23.93
2019-02-17T14:05:48.808Z,26.37
2019-02-17T14:10:51.373Z,22.93
2019-02-17T14:15:55.390Z,23.70
2019-02-17T14:21:02.778Z,26.07
2019-02-17T14:26:05.087Z,28.30
2019-02-17T14:31:09.328Z,26.23
2019-02-17T14:36:11.554Z,28.03
2019-02-17T14:41:14.314Z,26.10
2019-02-17T14:46:16.699Z,25.93
2019-02-17T14:51:19.078Z,24.93
2019-02-17T14:56:21.367Z,23.00
2019-02-17T15:01:26.559Z,24.93
2019-02-17T15:06:28.765Z,29.93
2019-02-17T15:11:30.945Z,27.13
2019-02-17T15:16:33.058Z,29.17
2019-02-17T15:21:35.286Z,28.00
2019-02-17T15:26:39.752Z,29.70
2019-02-17T15:31:42.102Z,36.93
2019-02-17T15:36:45.911Z,30.50
2019-02-17T15:41:48.537Z,30.20
2019-02-17T15:46:50.779Z,28.97
2019-02-17T15:51:53.039Z,33.90
2019-02-17T15:56:55.258Z,31.50
2019-02-17T16:01:57.470Z,28.83
2019-02-17T16:06:59.647Z,30.37
2019-02-17T16:12:02.022Z,31.77
2019-02-17T16:17:04.380Z,32.53
2019-02-17T16:22:08.363Z,33.60
2019-02-17T16:27:10.585Z,29.27
2019-02-17T16:32:14.334Z,31.23
2019-02-17T16:37:16.628Z,32.50
2019-02-17T16:42:21.010Z,34.50
2019-02-17T16:47:23.247Z,33.90
2019-02-17T16:52:27.379Z,36.13
2019-02-17T16:57:29.555Z,35.27
2019-02-17T17:02:42.207Z,31.23
2019-02-17T17:07:45.736Z,31.47
2019-02-17T17:12:48.069Z,35.97
2019-02-17T17:17:50.665Z,32.53
2019-02-17T17:22:54.711Z,38.07
2019-02-17T17:27:57.033Z,34.80
2019-02-17T17:33:01.453Z,36.43
2019-02-17T17:38:03.886Z,35.47
2019-02-17T17:43:06.268Z,35.13
2019-02-17T17:48:08.597Z,35.97
2019-02-17T17:53:12.575Z,40.33
2019-02-17T17:58:14.794Z,36.47
2019-02-17T18:03:17.022Z,42.47
2019-02-17T18:08:19.320Z,37.13
2019-02-17T18:13:22.090Z,36.10
2019-02-17T18:18:24.876Z,39.33
2019-02-17T18:23:27.619Z,38.27
2019-02-17T18:28:31.135Z,37.80
2019-02-17T18:33:33.402Z,35.30
2019-02-17T18:38:35.609Z,30.40
2019-02-17T18:43:37.829Z,28.83
2019-02-17T18:48:41.886Z,21.10
2019-02-17T18:53:45.951Z,21.70
2019-02-17T18:58:49.901Z,17.87
2019-02-17T19:03:52.057Z,15.63
2019-02-17T19:08:58.752Z,15.03
2019-02-17T19:14:02.911Z,14.93
2019-02-17T19:19:05.211Z,16.10
2019-02-17T19:24:07.518Z,18.90
2019-02-17T19:29:09.797Z,17.23
2019-02-17T19:34:13.932Z,18.60
2019-02-17T19:39:16.417Z,12.50
2019-02-17T19:44:18.721Z,14.43
2019-02-17T19:49:20.944Z,19.70
2019-02-17T19:54:24.828Z,13.60
2019-02-17T19:59:27.044Z,14.33
2019-02-17T20:04:40.046Z,14.90
2019-02-17T20:09:44.088Z,14.47
2019-02-17T20:14:46.389Z,12.43
2019-02-17T20:19:51.564Z,14.30
2019-02-17T20:24:55.635Z,15.07
2019-02-17T20:29:57.803Z,14.47
2019-02-17T20:35:00.320Z,16.47
2019-02-17T20:40:06.235Z,13.40
2019-02-17T20:45:08.738Z,13.53
2019-02-17T20:50:10.965Z,15.77
2019-02-17T20:55:13.218Z,15.90
2019-02-17T21:00:16.292Z,15.03
2019-02-17T21:05:22.101Z,15.43
2019-02-17T21:10:25.446Z,15.23
2019-02-17T21:15:27.619Z,15.00
2019-02-17T21:20:30.153Z,16.63
2019-02-17T21:25:35.698Z,16.37
2019-02-17T21:30:37.925Z,15.50
2019-02-17T21:35:40.086Z,16.27
2019-02-17T21:40:44.061Z,16.80
2019-02-17T21:45:46.785Z,19.97
2019-02-17T21:50:48.958Z,18.13
2019-02-17T21:55:51.180Z,18.20
2019-02-17T22:00:53.699Z,18.17
2019-02-17T22:05:55.937Z,20.17
2019-02-17T22:10:58.262Z,20.83
2019-02-17T22:16:00.481Z,18.23
2019-02-17T22:21:02.666Z,19.60
2019-02-17T22:26:04.991Z,17.43
2019-02-17T22:31:07.313Z,17.03
2019-02-17T22:36:09.579Z,18.30
2019-02-17T22:41:14.866Z,14.63
2019-02-17T22:46:17.394Z,17.03
2019-02-17T22:51:20.820Z,18.37
2019-02-17T22:56:25.242Z,19.63
2019-02-17T23:01:35.342Z,16.33
2019-02-17T23:06:37.677Z,17.27
2019-02-17T23:11:41.802Z,19.30
2019-02-17T23:16:44.055Z,17.60
2019-02-17T23:21:48.342Z,16.40
2019-02-17T23:26:50.412Z,16.27
2019-02-17T23:31:52.552Z,17.73
2019-02-17T23:37:03.509Z,16.77
2019-02-17T23:41:58.593Z,14.87
2019-02-17T23:47:00.706Z,18.13
2019-02-17T23:52:02.764Z,17.00
2019-02-17T23:57:04.845Z,18.23
